sensor_id;sensor_type;location;lat;lon;timestamp;P1;durP1;ratioP1;P2;durP2;ratioP2
32746;SDS011;19118;50.860;13.662;2022-10-12T00:00:48;12.02;;;2.08;;
32746;SDS011;19118;50.860;13.662;2022-10-12T00:05:58;11.43;;;1.65;;
32746;SDS011;19118;50.860;13.662;2022-10-12T00:11:00;11.40;;;1.83;;
32746;SDS011;19118;50.860;13.662;2022-10-12T00:16:02;9.80;;;1.85;;
32746;SDS011;19118;50.860;13.662;2022-10-12T00:21:05;5.97;;;1.52;;
32746;SDS011;19118;50.860;13.662;2022-10-12T00:26:10;14.40;;;2.03;;
32746;SDS011;19118;50.860;13.662;2022-10-12T00:31:16;6.25;;;1.65;;
32746;SDS011;19118;50.860;13.662;2022-10-12T00:36:18;14.80;;;1.95;;
32746;SDS011;19118;50.860;13.662;2022-10-12T00:41:23;17.70;;;1.80;;
32746;SDS011;19118;50.860;13.662;2022-10-12T00:51:31;14.40;;;1.75;;
32746;SDS011;19118;50.860;13.662;2022-10-12T00:56:33;6.15;;;1.52;;
32746;SDS011;19118;50.860;13.662;2022-10-12T01:01:36;14.77;;;1.70;;
32746;SDS011;19118;50.860;13.662;2022-10-12T01:06:37;16.88;;;1.70;;
32746;SDS011;19118;50.860;13.662;2022-10-12T01:11:38;14.15;;;2.28;;
32746;SDS011;19118;50.860;13.662;2022-10-12T01:17:02;7.10;;;1.52;;
32746;SDS011;19118;50.860;13.662;2022-10-12T01:22:07;13.85;;;1.63;;
32746;SDS011;19118;50.860;13.662;2022-10-12T01:27:32;11.73;;;1.88;;
32746;SDS011;19118;50.860;13.662;2022-10-12T01:43:15;7.60;;;1.95;;
32746;SDS011;19118;50.860;13.662;2022-10-12T01:48:17;8.73;;;1.80;;
32746;SDS011;19118;50.860;13.662;2022-10-12T01:53:40;9.40;;;1.80;;
32746;SDS011;19118;50.860;13.662;2022-10-12T02:04:05;18.17;;;2.08;;
32746;SDS011;19118;50.860;13.662;2022-10-12T02:09:32;28.13;;;2.90;;
32746;SDS011;19118;50.860;13.662;2022-10-12T02:14:37;16.63;;;1.95;;
32746;SDS011;19118;50.860;13.662;2022-10-12T02:19:41;6.95;;;1.83;;
32746;SDS011;19118;50.860;13.662;2022-10-12T02:24:46;11.00;;;1.50;;
32746;SDS011;19118;50.860;13.662;2022-10-12T02:29:49;31.35;;;2.33;;
32746;SDS011;19118;50.860;13.662;2022-10-12T02:45:48;14.75;;;1.98;;
32746;SDS011;19118;50.860;13.662;2022-10-12T02:50:52;25.70;;;2.03;;
32746;SDS011;19118;50.860;13.662;2022-10-12T02:55:59;12.60;;;2.03;;
32746;SDS011;19118;50.860;13.662;2022-10-12T03:01:02;9.55;;;2.10;;
32746;SDS011;19118;50.860;13.662;2022-10-12T03:06:03;9.15;;;1.75;;
32746;SDS011;19118;50.860;13.662;2022-10-12T03:11:04;14.02;;;2.00;;
32746;SDS011;19118;50.860;13.662;2022-10-12T03:16:07;11.90;;;2.15;;
32746;SDS011;19118;50.860;13.662;2022-10-12T03:21:09;24.60;;;3.30;;
32746;SDS011;19118;50.860;13.662;2022-10-12T03:26:10;11.18;;;2.10;;
32746;SDS011;19118;50.860;13.662;2022-10-12T03:31:10;11.73;;;2.33;;
32746;SDS011;19118;50.860;13.662;2022-10-12T03:36:12;19.20;;;2.38;;
32746;SDS011;19118;50.860;13.662;2022-10-12T03:41:12;9.55;;;1.80;;
32746;SDS011;19118;50.860;13.662;2022-10-12T03:46:12;10.88;;;2.28;;
32746;SDS011;19118;50.860;13.662;2022-10-12T03:51:13;9.93;;;1.92;;
32746;SDS011;19118;50.860;13.662;2022-10-12T03:56:14;20.92;;;2.08;;
32746;SDS011;19118;50.860;13.662;2022-10-12T04:01:14;21.88;;;1.90;;
32746;SDS011;19118;50.860;13.662;2022-10-12T04:06:14;9.18;;;1.67;;
32746;SDS011;19118;50.860;13.662;2022-10-12T04:11:15;14.23;;;2.53;;
32746;SDS011;19118;50.860;13.662;2022-10-12T04:16:15;8.98;;;1.98;;
32746;SDS011;19118;50.860;13.662;2022-10-12T04:21:16;15.65;;;2.20;;
32746;SDS011;19118;50.860;13.662;2022-10-12T04:26:21;13.55;;;3.60;;
32746;SDS011;19118;50.860;13.662;2022-10-12T04:31:21;17.20;;;5.28;;
32746;SDS011;19118;50.860;13.662;2022-10-12T04:36:22;6.85;;;1.95;;
32746;SDS011;19118;50.860;13.662;2022-10-12T04:41:24;18.45;;;2.58;;
32746;SDS011;19118;50.860;13.662;2022-10-12T04:46:25;16.23;;;1.77;;
32746;SDS011;19118;50.860;13.662;2022-10-12T04:51:25;17.88;;;2.45;;
32746;SDS011;19118;50.860;13.662;2022-10-12T04:56:26;17.48;;;6.45;;
32746;SDS011;19118;50.860;13.662;2022-10-12T05:01:27;10.30;;;4.90;;
32746;SDS011;19118;50.860;13.662;2022-10-12T05:06:27;19.42;;;4.78;;
32746;SDS011;19118;50.860;13.662;2022-10-12T05:11:28;19.27;;;3.50;;
32746;SDS011;19118;50.860;13.662;2022-10-12T05:16:28;15.77;;;2.42;;
32746;SDS011;19118;50.860;13.662;2022-10-12T05:21:28;7.15;;;2.80;;
32746;SDS011;19118;50.860;13.662;2022-10-12T05:26:29;26.45;;;4.60;;
32746;SDS011;19118;50.860;13.662;2022-10-12T05:31:29;27.02;;;7.18;;
32746;SDS011;19118;50.860;13.662;2022-10-12T05:36:29;15.15;;;4.05;;
32746;SDS011;19118;50.860;13.662;2022-10-12T05:41:30;10.25;;;2.97;;
32746;SDS011;19118;50.860;13.662;2022-10-12T05:46:30;21.08;;;4.45;;
32746;SDS011;19118;50.860;13.662;2022-10-12T05:51:31;17.13;;;4.05;;
32746;SDS011;19118;50.860;13.662;2022-10-12T05:56:31;28.15;;;4.70;;
32746;SDS011;19118;50.860;13.662;2022-10-12T06:01:32;18.52;;;3.85;;
32746;SDS011;19118;50.860;13.662;2022-10-12T06:06:32;13.95;;;3.42;;
32746;SDS011;19118;50.860;13.662;2022-10-12T06:11:32;27.00;;;4.10;;
32746;SDS011;19118;50.860;13.662;2022-10-12T06:16:33;18.20;;;4.88;;
32746;SDS011;19118;50.860;13.662;2022-10-12T06:21:33;22.15;;;5.38;;
32746;SDS011;19118;50.860;13.662;2022-10-12T06:26:34;31.88;;;5.45;;
32746;SDS011;19118;50.860;13.662;2022-10-12T06:31:34;20.48;;;5.95;;
32746;SDS011;19118;50.860;13.662;2022-10-12T06:36:36;31.23;;;5.78;;
32746;SDS011;19118;50.860;13.662;2022-10-12T06:41:37;20.48;;;6.00;;
32746;SDS011;19118;50.860;13.662;2022-10-12T06:46:41;21.08;;;6.13;;
32746;SDS011;19118;50.860;13.662;2022-10-12T06:51:42;23.50;;;6.25;;
32746;SDS011;19118;50.860;13.662;2022-10-12T06:56:42;29.08;;;6.95;;
32746;SDS011;19118;50.860;13.662;2022-10-12T07:01:43;23.30;;;5.28;;
32746;SDS011;19118;50.860;13.662;2022-10-12T07:06:44;24.48;;;5.68;;
32746;SDS011;19118;50.860;13.662;2022-10-12T07:11:44;27.33;;;5.70;;
32746;SDS011;19118;50.860;13.662;2022-10-12T07:16:45;22.13;;;5.30;;
32746;SDS011;19118;50.860;13.662;2022-10-12T07:21:46;22.55;;;5.63;;
32746;SDS011;19118;50.860;13.662;2022-10-12T07:26:48;25.33;;;6.90;;
32746;SDS011;19118;50.860;13.662;2022-10-12T07:31:49;40.95;;;9.52;;
32746;SDS011;19118;50.860;13.662;2022-10-12T07:36:49;30.52;;;7.68;;
32746;SDS011;19118;50.860;13.662;2022-10-12T07:41:50;23.52;;;7.53;;
32746;SDS011;19118;50.860;13.662;2022-10-12T07:46:51;22.38;;;7.10;;
32746;SDS011;19118;50.860;13.662;2022-10-12T07:51:52;37.40;;;6.85;;
32746;SDS011;19118;50.860;13.662;2022-10-12T07:56:53;21.58;;;4.68;;
32746;SDS011;19118;50.860;13.662;2022-10-12T08:01:53;18.35;;;4.05;;
32746;SDS011;19118;50.860;13.662;2022-10-12T08:06:54;21.25;;;3.83;;
32746;SDS011;19118;50.860;13.662;2022-10-12T08:11:54;18.95;;;3.47;;
32746;SDS011;19118;50.860;13.662;2022-10-12T08:16:57;17.27;;;3.70;;
32746;SDS011;19118;50.860;13.662;2022-10-12T08:21:58;16.35;;;4.03;;
32746;SDS011;19118;50.860;13.662;2022-10-12T08:26:58;19.25;;;3.42;;
32746;SDS011;19118;50.860;13.662;2022-10-12T08:31:59;9.80;;;2.83;;
32746;SDS011;19118;50.860;13.662;2022-10-12T08:37:01;19.15;;;2.95;;
32746;SDS011;19118;50.860;13.662;2022-10-12T08:47:45;9.57;;;2.58;;
32746;SDS011;19118;50.860;13.662;2022-10-12T08:52:52;18.48;;;3.58;;
32746;SDS011;19118;50.860;13.662;2022-10-12T08:57:57;14.70;;;4.03;;
32746;SDS011;19118;50.860;13.662;2022-10-12T09:13:54;14.32;;;3.00;;
32746;SDS011;19118;50.860;13.662;2022-10-12T09:19:36;7.25;;;2.22;;
32746;SDS011;19118;50.860;13.662;2022-10-12T09:24:36;11.15;;;3.13;;
32746;SDS011;19118;50.860;13.662;2022-10-12T09:29:38;10.77;;;2.67;;
32746;SDS011;19118;50.860;13.662;2022-10-12T09:34:38;16.98;;;3.90;;
32746;SDS011;19118;50.860;13.662;2022-10-12T09:39:39;22.40;;;2.75;;
32746;SDS011;19118;50.860;13.662;2022-10-12T09:44:41;7.50;;;3.00;;
32746;SDS011;19118;50.860;13.662;2022-10-12T09:49:46;9.02;;;2.78;;
32746;SDS011;19118;50.860;13.662;2022-10-12T09:59:53;13.73;;;2.92;;
32746;SDS011;19118;50.860;13.662;2022-10-12T10:04:54;12.70;;;3.08;;
32746;SDS011;19118;50.860;13.662;2022-10-12T10:10:14;12.90;;;3.13;;
32746;SDS011;19118;50.860;13.662;2022-10-12T10:15:26;15.60;;;4.10;;
32746;SDS011;19118;50.860;13.662;2022-10-12T10:20:34;16.35;;;3.22;;
32746;SDS011;19118;50.860;13.662;2022-10-12T10:25:41;15.40;;;4.20;;
32746;SDS011;19118;50.860;13.662;2022-10-12T10:31:35;20.75;;;3.53;;
32746;SDS011;19118;50.860;13.662;2022-10-12T10:36:25;14.18;;;3.58;;
32746;SDS011;19118;50.860;13.662;2022-10-12T10:41:29;10.38;;;2.20;;
32746;SDS011;19118;50.860;13.662;2022-10-12T10:46:33;13.63;;;2.67;;
32746;SDS011;19118;50.860;13.662;2022-10-12T10:51:39;14.32;;;3.60;;
32746;SDS011;19118;50.860;13.662;2022-10-12T10:56:47;16.23;;;3.22;;
32746;SDS011;19118;50.860;13.662;2022-10-12T11:02:10;14.88;;;2.97;;
32746;SDS011;19118;50.860;13.662;2022-10-12T11:12:18;12.95;;;3.80;;
32746;SDS011;19118;50.860;13.662;2022-10-12T11:17:26;15.93;;;4.03;;
32746;SDS011;19118;50.860;13.662;2022-10-12T11:27:39;15.65;;;3.10;;
32746;SDS011;19118;50.860;13.662;2022-10-12T11:32:42;18.58;;;4.35;;
32746;SDS011;19118;50.860;13.662;2022-10-12T11:37:48;17.00;;;3.70;;
32746;SDS011;19118;50.860;13.662;2022-10-12T11:42:52;17.63;;;3.67;;
32746;SDS011;19118;50.860;13.662;2022-10-12T11:48:05;15.30;;;3.25;;
32746;SDS011;19118;50.860;13.662;2022-10-12T11:53:34;17.02;;;2.67;;
32746;SDS011;19118;50.860;13.662;2022-10-12T11:58:34;9.50;;;2.72;;
32746;SDS011;19118;50.860;13.662;2022-10-12T12:13:42;12.77;;;2.95;;
32746;SDS011;19118;50.860;13.662;2022-10-12T12:24:15;26.58;;;8.85;;
32746;SDS011;19118;50.860;13.662;2022-10-12T12:29:18;18.13;;;4.70;;
32746;SDS011;19118;50.860;13.662;2022-10-12T12:34:25;13.48;;;3.80;;
32746;SDS011;19118;50.860;13.662;2022-10-12T12:39:31;11.40;;;2.88;;
32746;SDS011;19118;50.860;13.662;2022-10-12T12:54:49;7.97;;;3.13;;
32746;SDS011;19118;50.860;13.662;2022-10-12T13:10:45;11.50;;;3.30;;
32746;SDS011;19118;50.860;13.662;2022-10-12T13:15:57;18.23;;;3.30;;
32746;SDS011;19118;50.860;13.662;2022-10-12T13:21:08;12.63;;;3.25;;
32746;SDS011;19118;50.860;13.662;2022-10-12T13:26:16;13.52;;;3.65;;
32746;SDS011;19118;50.860;13.662;2022-10-12T13:36:57;19.65;;;3.35;;
32746;SDS011;19118;50.860;13.662;2022-10-12T13:42:00;9.00;;;2.95;;
32746;SDS011;19118;50.860;13.662;2022-10-12T13:47:18;17.88;;;4.65;;
32746;SDS011;19118;50.860;13.662;2022-10-12T13:52:28;14.02;;;3.63;;
32746;SDS011;19118;50.860;13.662;2022-10-12T13:57:36;13.00;;;3.05;;
32746;SDS011;19118;50.860;13.662;2022-10-12T14:07:41;13.75;;;3.90;;
32746;SDS011;19118;50.860;13.662;2022-10-12T14:12:44;17.08;;;4.30;;
32746;SDS011;19118;50.860;13.662;2022-10-12T14:17:47;14.02;;;3.10;;
32746;SDS011;19118;50.860;13.662;2022-10-12T14:22:49;11.95;;;3.85;;
32746;SDS011;19118;50.860;13.662;2022-10-12T14:28:00;13.60;;;3.53;;
32746;SDS011;19118;50.860;13.662;2022-10-12T14:38:34;21.58;;;7.28;;
32746;SDS011;19118;50.860;13.662;2022-10-12T14:43:36;11.77;;;4.15;;
32746;SDS011;19118;50.860;13.662;2022-10-12T14:48:36;17.03;;;4.23;;
32746;SDS011;19118;50.860;13.662;2022-10-12T14:53:36;18.88;;;4.50;;
32746;SDS011;19118;50.860;13.662;2022-10-12T14:58:37;15.97;;;3.60;;
32746;SDS011;19118;50.860;13.662;2022-10-12T15:03:37;17.57;;;5.17;;
32746;SDS011;19118;50.860;13.662;2022-10-12T15:08:39;14.68;;;4.50;;
32746;SDS011;19118;50.860;13.662;2022-10-12T15:13:40;14.35;;;4.03;;
32746;SDS011;19118;50.860;13.662;2022-10-12T15:18:41;14.35;;;4.43;;
32746;SDS011;19118;50.860;13.662;2022-10-12T15:23:41;23.90;;;4.90;;
32746;SDS011;19118;50.860;13.662;2022-10-12T15:28:43;17.67;;;4.20;;
32746;SDS011;19118;50.860;13.662;2022-10-12T15:33:43;14.82;;;4.35;;
32746;SDS011;19118;50.860;13.662;2022-10-12T15:38:44;16.13;;;4.40;;
32746;SDS011;19118;50.860;13.662;2022-10-12T15:43:44;14.75;;;4.75;;
32746;SDS011;19118;50.860;13.662;2022-10-12T15:48:45;24.33;;;4.63;;
32746;SDS011;19118;50.860;13.662;2022-10-12T15:53:45;19.45;;;5.05;;
32746;SDS011;19118;50.860;13.662;2022-10-12T15:58:45;18.60;;;6.35;;
32746;SDS011;19118;50.860;13.662;2022-10-12T16:03:47;20.98;;;4.47;;
32746;SDS011;19118;50.860;13.662;2022-10-12T16:08:48;22.85;;;5.32;;
32746;SDS011;19118;50.860;13.662;2022-10-12T16:13:48;17.13;;;4.80;;
32746;SDS011;19118;50.860;13.662;2022-10-12T16:18:49;17.50;;;6.18;;
32746;SDS011;19118;50.860;13.662;2022-10-12T16:23:52;19.48;;;4.93;;
32746;SDS011;19118;50.860;13.662;2022-10-12T16:28:53;19.73;;;6.00;;
32746;SDS011;19118;50.860;13.662;2022-10-12T16:33:53;19.70;;;6.78;;
32746;SDS011;19118;50.860;13.662;2022-10-12T16:38:54;30.33;;;8.80;;
32746;SDS011;19118;50.860;13.662;2022-10-12T16:43:54;20.05;;;7.20;;
32746;SDS011;19118;50.860;13.662;2022-10-12T16:48:54;17.42;;;6.55;;
32746;SDS011;19118;50.860;13.662;2022-10-12T16:53:55;25.53;;;9.80;;
32746;SDS011;19118;50.860;13.662;2022-10-12T16:58:56;32.83;;;12.07;;
32746;SDS011;19118;50.860;13.662;2022-10-12T17:03:57;29.77;;;10.80;;
32746;SDS011;19118;50.860;13.662;2022-10-12T17:09:01;44.42;;;15.32;;
32746;SDS011;19118;50.860;13.662;2022-10-12T17:14:02;19.65;;;8.57;;
32746;SDS011;19118;50.860;13.662;2022-10-12T17:19:03;38.10;;;11.02;;
32746;SDS011;19118;50.860;13.662;2022-10-12T17:24:04;30.35;;;9.95;;
32746;SDS011;19118;50.860;13.662;2022-10-12T17:29:05;24.65;;;8.88;;
32746;SDS011;19118;50.860;13.662;2022-10-12T17:34:06;22.85;;;8.05;;
32746;SDS011;19118;50.860;13.662;2022-10-12T17:39:07;43.75;;;18.27;;
32746;SDS011;19118;50.860;13.662;2022-10-12T17:44:08;25.35;;;9.18;;
32746;SDS011;19118;50.860;13.662;2022-10-12T17:49:13;24.55;;;9.15;;
32746;SDS011;19118;50.860;13.662;2022-10-12T17:54:16;33.03;;;11.70;;
32746;SDS011;19118;50.860;13.662;2022-10-12T17:59:18;19.85;;;9.52;;
32746;SDS011;19118;50.860;13.662;2022-10-12T18:04:19;29.02;;;9.07;;
32746;SDS011;19118;50.860;13.662;2022-10-12T18:09:20;21.73;;;9.95;;
32746;SDS011;19118;50.860;13.662;2022-10-12T18:14:20;30.15;;;10.48;;
32746;SDS011;19118;50.860;13.662;2022-10-12T18:19:21;27.23;;;10.27;;
32746;SDS011;19118;50.860;13.662;2022-10-12T18:24:24;20.25;;;8.73;;
32746;SDS011;19118;50.860;13.662;2022-10-12T18:29:24;20.13;;;8.73;;
32746;SDS011;19118;50.860;13.662;2022-10-12T18:34:25;30.83;;;8.70;;
32746;SDS011;19118;50.860;13.662;2022-10-12T18:39:26;25.17;;;9.48;;
32746;SDS011;19118;50.860;13.662;2022-10-12T18:44:26;31.65;;;9.48;;
32746;SDS011;19118;50.860;13.662;2022-10-12T18:49:27;24.50;;;8.98;;
32746;SDS011;19118;50.860;13.662;2022-10-12T18:54:27;38.83;;;14.77;;
32746;SDS011;19118;50.860;13.662;2022-10-12T18:59:28;24.10;;;11.05;;
32746;SDS011;19118;50.860;13.662;2022-10-12T19:04:28;23.73;;;8.27;;
32746;SDS011;19118;50.860;13.662;2022-10-12T19:09:28;26.92;;;9.10;;
32746;SDS011;19118;50.860;13.662;2022-10-12T19:14:29;31.60;;;9.73;;
32746;SDS011;19118;50.860;13.662;2022-10-12T19:19:29;25.38;;;10.27;;
32746;SDS011;19118;50.860;13.662;2022-10-12T19:24:29;28.50;;;9.15;;
32746;SDS011;19118;50.860;13.662;2022-10-12T19:29:30;26.63;;;9.75;;
32746;SDS011;19118;50.860;13.662;2022-10-12T19:34:30;28.52;;;9.75;;
32746;SDS011;19118;50.860;13.662;2022-10-12T19:39:31;25.40;;;8.80;;
32746;SDS011;19118;50.860;13.662;2022-10-12T19:44:31;27.45;;;9.93;;
32746;SDS011;19118;50.860;13.662;2022-10-12T19:49:32;30.75;;;10.15;;
32746;SDS011;19118;50.860;13.662;2022-10-12T19:54:32;29.05;;;9.70;;
32746;SDS011;19118;50.860;13.662;2022-10-12T19:59:33;28.35;;;9.63;;
32746;SDS011;19118;50.860;13.662;2022-10-12T20:04:33;23.67;;;9.65;;
32746;SDS011;19118;50.860;13.662;2022-10-12T20:09:33;25.67;;;9.02;;
32746;SDS011;19118;50.860;13.662;2022-10-12T20:14:34;26.70;;;9.35;;
32746;SDS011;19118;50.860;13.662;2022-10-12T20:19:35;28.77;;;10.30;;
32746;SDS011;19118;50.860;13.662;2022-10-12T20:24:35;22.65;;;9.55;;
32746;SDS011;19118;50.860;13.662;2022-10-12T20:29:36;30.30;;;9.93;;
32746;SDS011;19118;50.860;13.662;2022-10-12T20:34:36;26.50;;;10.43;;
32746;SDS011;19118;50.860;13.662;2022-10-12T20:39:37;33.30;;;11.00;;
32746;SDS011;19118;50.860;13.662;2022-10-12T20:44:37;31.10;;;10.27;;
32746;SDS011;19118;50.860;13.662;2022-10-12T20:49:38;32.53;;;12.13;;
32746;SDS011;19118;50.860;13.662;2022-10-12T20:54:38;34.45;;;10.85;;
32746;SDS011;19118;50.860;13.662;2022-10-12T20:59:39;25.20;;;10.38;;
32746;SDS011;19118;50.860;13.662;2022-10-12T21:04:43;19.88;;;9.38;;
32746;SDS011;19118;50.860;13.662;2022-10-12T21:09:44;25.40;;;9.80;;
32746;SDS011;19118;50.860;13.662;2022-10-12T21:14:44;26.40;;;9.80;;
32746;SDS011;19118;50.860;13.662;2022-10-12T21:19:44;27.95;;;9.95;;
32746;SDS011;19118;50.860;13.662;2022-10-12T21:24:45;26.33;;;10.35;;
32746;SDS011;19118;50.860;13.662;2022-10-12T21:29:45;25.15;;;9.88;;
32746;SDS011;19118;50.860;13.662;2022-10-12T21:34:46;32.57;;;9.83;;
32746;SDS011;19118;50.860;13.662;2022-10-12T21:39:47;22.92;;;9.23;;
32746;SDS011;19118;50.860;13.662;2022-10-12T21:44:47;19.20;;;8.25;;
32746;SDS011;19118;50.860;13.662;2022-10-12T21:49:48;29.02;;;9.82;;
32746;SDS011;19118;50.860;13.662;2022-10-12T21:54:49;18.60;;;9.37;;
32746;SDS011;19118;50.860;13.662;2022-10-12T21:59:49;19.95;;;9.05;;
32746;SDS011;19118;50.860;13.662;2022-10-12T22:04:49;24.10;;;9.25;;
32746;SDS011;19118;50.860;13.662;2022-10-12T22:09:50;21.38;;;9.48;;
32746;SDS011;19118;50.860;13.662;2022-10-12T22:14:50;26.58;;;9.20;;
32746;SDS011;19118;50.860;13.662;2022-10-12T22:19:51;22.02;;;9.52;;
32746;SDS011;19118;50.860;13.662;2022-10-12T22:24:51;24.35;;;9.38;;
32746;SDS011;19118;50.860;13.662;2022-10-12T22:29:52;25.23;;;10.13;;
32746;SDS011;19118;50.860;13.662;2022-10-12T22:34:53;22.55;;;9.88;;
32746;SDS011;19118;50.860;13.662;2022-10-12T22:39:53;22.95;;;9.52;;
32746;SDS011;19118;50.860;13.662;2022-10-12T22:44:54;23.02;;;9.95;;
32746;SDS011;19118;50.860;13.662;2022-10-12T22:49:55;24.83;;;9.85;;
32746;SDS011;19118;50.860;13.662;2022-10-12T22:54:56;27.70;;;9.13;;
32746;SDS011;19118;50.860;13.662;2022-10-12T22:59:56;29.33;;;9.75;;
32746;SDS011;19118;50.860;13.662;2022-10-12T23:04:56;17.52;;;9.27;;
32746;SDS011;19118;50.860;13.662;2022-10-12T23:09:57;26.63;;;9.63;;
32746;SDS011;19118;50.860;13.662;2022-10-12T23:14:57;28.83;;;8.57;;
32746;SDS011;19118;50.860;13.662;2022-10-12T23:19:57;21.77;;;9.83;;
32746;SDS011;19118;50.860;13.662;2022-10-12T23:24:58;27.08;;;11.13;;
32746;SDS011;19118;50.860;13.662;2022-10-12T23:29:58;29.63;;;9.38;;
32746;SDS011;19118;50.860;13.662;2022-10-12T23:34:58;23.33;;;9.50;;
32746;SDS011;19118;50.860;13.662;2022-10-12T23:39:59;30.08;;;9.90;;
32746;SDS011;19118;50.860;13.662;2022-10-12T23:44:59;22.48;;;9.20;;
32746;SDS011;19118;50.860;13.662;2022-10-12T23:50:00;23.70;;;9.55;;
32746;SDS011;19118;50.860;13.662;2022-10-12T23:55:00;24.58;;;9.35;;
